CheckWX is a tool to help pilots better visualize weather data.  It is not intended as a substitute for an official pre-flight weather briefing.

12:08:00 UTC

SBSR METAR
Prof. Eribelto Manoel Reino State Airport
São José Do Rio Preto, Brazil
Current

1 hour ago

SBSR 261100Z 05004KT CAVOK 19/13 Q1016
Observed
Jun-26 @ 11:00 UTC
Wind
  • 050° at 4 KTS
Visibility
10,000+ meters
Flight Rules
VFR
Cloud Levels
  • Clear skies
Temperature
19°C / 66°F
Dewpoint
13°C / 55°F
Humidity
68%
Altimeter
30" Hg
Pressure
1015.92 hPa
Previous

2 hours ago

SBSR 261000Z 05002KT CAVOK 18/13 Q1015
Observed
Jun-26 @ 10:00 UTC
Wind
  • 050° at 2 KTS
Visibility
10,000+ meters
Flight Rules
VFR
Cloud Levels
  • Clear skies
Temperature
18°C / 64°F
Dewpoint
13°C / 55°F
Humidity
73%
Altimeter
29.97" Hg
Pressure
1014.92 hPa
Previous

3 hours ago

SBSR 260900Z 09002KT CAVOK 19/13 Q1015
Observed
Jun-26 @ 09:00 UTC
Wind
  • 090° at 2 KTS
Visibility
10,000+ meters
Flight Rules
VFR
Cloud Levels
  • Clear skies
Temperature
19°C / 66°F
Dewpoint
13°C / 55°F
Humidity
68%
Altimeter
29.97" Hg
Pressure
1014.92 hPa